Terminal Aerodrome Forecast
Issued by NWS

Current Version | Previous Version | Text Only | Print | Product List | Glossary On
Versions: 1 2 3 4 5 6 7 8 9 10 11 12 13 14 15
000
FTUS41 KBTV 251700
TAFMPV
TAF
KMPV 251726Z 2518/2618 28007G15KT P6SM SCT060
     FM260000 VRB02KT P6SM SKC
     FM260600 00000KT 6SM BR SCT001
     FM260800 00000KT 1/2SM FG VV001
     FM261200 VRB03KT 3SM BR SCT001
     FM261300 22008KT P6SM SCT050 BKN200=

USA.gov is the U.S. government's official web portal to all federal, state and local government web resources and services.